createdAt,value
2019-01-04T00:02:12.007Z,-1.27
2019-01-04T00:04:37.830Z,-1.38
2019-01-04T00:07:03.663Z,-1.38
2019-01-04T00:09:29.484Z,-1.41
2019-01-04T00:11:55.441Z,-1.25
2019-01-04T00:14:21.453Z,-1.32
2019-01-04T00:16:47.278Z,-1.33
2019-01-04T00:19:13.138Z,-1.35
2019-01-04T00:21:39.085Z,-1.24
2019-01-04T00:24:05.020Z,-1.31
2019-01-04T00:26:30.852Z,-1.44
2019-01-04T00:28:56.671Z,-1.40
2019-01-04T00:31:22.520Z,-1.29
2019-01-04T00:33:48.340Z,-1.17
2019-01-04T00:36:14.211Z,-1.26
2019-01-04T00:38:40.128Z,-1.40
2019-01-04T00:41:05.979Z,-1.44
2019-01-04T00:43:31.776Z,-1.44
2019-01-04T00:45:57.604Z,-1.44
2019-01-04T00:48:23.823Z,-1.44
2019-01-04T00:50:49.675Z,-1.42
2019-01-04T00:53:15.501Z,-1.39
2019-01-04T00:55:51.159Z,-1.38
2019-01-04T00:58:48.342Z,-1.40
2019-01-04T01:01:30.205Z,-1.30
2019-01-04T01:04:09.138Z,-1.39
2019-01-04T01:07:01.952Z,-1.50
2019-01-04T01:09:54.684Z,-1.42
2019-01-04T01:13:02.315Z,-1.41
2019-01-04T01:15:46.454Z,-1.43
2019-01-04T01:18:18.938Z,-1.49
2019-01-04T01:21:09.437Z,-1.44
2019-01-04T01:24:01.980Z,-1.46
2019-01-04T01:26:48.425Z,-1.49
2019-01-04T01:29:41.714Z,-1.47
2019-01-04T01:32:44.990Z,-1.50
2019-01-04T01:35:20.676Z,-1.54
2019-01-04T01:38:13.046Z,-1.49
2019-01-04T01:41:08.565Z,-1.34
2019-01-04T01:44:00.920Z,-1.28
2019-01-04T01:46:39.665Z,-1.30
2019-01-04T01:49:15.049Z,-1.15
2019-01-04T01:51:44.797Z,-1.31
2019-01-04T01:54:10.660Z,-1.28
2019-01-04T01:56:36.509Z,-1.20
2019-01-04T01:59:02.308Z,-1.26
2019-01-04T02:01:28.129Z,-1.42
2019-01-04T02:03:53.955Z,-1.45
2019-01-04T02:06:19.799Z,-1.30
2019-01-04T02:08:45.623Z,-1.43
2019-01-04T02:11:11.472Z,-1.49
2019-01-04T02:13:37.394Z,-1.55
2019-01-04T02:16:03.231Z,-1.47
2019-01-04T02:18:29.037Z,-1.49
2019-01-04T02:20:54.980Z,-1.57
2019-01-04T02:23:20.908Z,-1.52
2019-01-04T02:25:46.758Z,-1.46
2019-01-04T02:28:12.603Z,-1.49
2019-01-04T02:30:38.460Z,-1.47
2019-01-04T02:33:04.312Z,-1.42
2019-01-04T02:35:30.151Z,-1.42
2019-01-04T02:37:55.988Z,-1.53
2019-01-04T02:40:21.890Z,-1.47
2019-01-04T02:42:47.704Z,-1.52
2019-01-04T02:45:13.536Z,-1.39
2019-01-04T02:47:39.374Z,-1.58
2019-01-04T02:50:05.301Z,-1.63
2019-01-04T02:52:31.124Z,-1.62
2019-01-04T02:54:56.945Z,-1.65
2019-01-04T02:57:22.814Z,-1.51
2019-01-04T02:59:48.644Z,-1.55
2019-01-04T03:02:14.470Z,-1.61
2019-01-04T03:04:40.283Z,-1.58
2019-01-04T03:07:06.247Z,-1.53
2019-01-04T03:09:32.089Z,-1.66
2019-01-04T03:11:57.899Z,-1.77
2019-01-04T03:14:23.726Z,-1.80
2019-01-04T03:16:49.636Z,-1.70
2019-01-04T03:19:15.453Z,-1.57
2019-01-04T03:21:41.389Z,-1.61
2019-01-04T03:24:07.198Z,-1.54
2019-01-04T03:26:33.057Z,-1.53
2019-01-04T03:28:58.916Z,-1.51
2019-01-04T03:31:24.828Z,-1.26
2019-01-04T03:33:50.636Z,-1.26
2019-01-04T03:36:16.559Z,-1.24
2019-01-04T03:38:42.521Z,-1.30
2019-01-04T03:41:08.390Z,-1.24
2019-01-04T03:43:34.230Z,-1.17
2019-01-04T03:46:00.133Z,-1.21
2019-01-04T03:48:25.978Z,-1.22
2019-01-04T03:50:51.808Z,-1.28
2019-01-04T03:53:17.633Z,-1.22
2019-01-04T03:55:43.457Z,-1.32
2019-01-04T03:58:09.289Z,-1.30
2019-01-04T04:00:35.091Z,-1.26
2019-01-04T04:03:01.038Z,-1.34
2019-01-04T04:05:26.841Z,-1.38
2019-01-04T04:07:52.650Z,-1.40
2019-01-04T04:10:18.464Z,-1.24
2019-01-04T04:12:44.292Z,-1.10
2019-01-04T04:15:10.199Z,-1.22
2019-01-04T04:17:36.023Z,-1.19
2019-01-04T04:20:03.126Z,-1.02
2019-01-04T04:22:28.961Z,-1.18
2019-01-04T04:24:54.781Z,-1.21
2019-01-04T04:27:20.615Z,-1.36
2019-01-04T04:29:46.422Z,-1.37
2019-01-04T04:32:12.286Z,-1.43
2019-01-04T04:34:38.049Z,-1.39
2019-01-04T04:37:03.888Z,-1.39
2019-01-04T04:39:29.705Z,-1.40
2019-01-04T04:41:55.536Z,-1.41
2019-01-04T04:44:21.345Z,-1.35
2019-01-04T04:46:47.284Z,-1.33
2019-01-04T04:49:13.091Z,-1.31
2019-01-04T04:51:38.903Z,-1.31
2019-01-04T04:54:04.710Z,-1.28
2019-01-04T04:56:30.526Z,-1.33
2019-01-04T04:58:56.443Z,-1.32
2019-01-04T05:01:22.310Z,-1.35
2019-01-04T05:03:48.145Z,-1.37
2019-01-04T05:06:13.962Z,-1.28
2019-01-04T05:08:39.801Z,-1.32
2019-01-04T05:11:05.627Z,-1.26
2019-01-04T05:13:31.453Z,-1.34
2019-01-04T05:15:57.287Z,-1.36
2019-01-04T05:18:23.085Z,-1.37
2019-01-04T05:20:48.958Z,-1.45
2019-01-04T05:23:14.802Z,-1.31
2019-01-04T05:25:40.729Z,-1.43
2019-01-04T05:28:06.603Z,-1.43
2019-01-04T05:30:32.423Z,-1.53
2019-01-04T05:32:58.283Z,-1.53
2019-01-04T05:35:24.072Z,-1.54
2019-01-04T05:37:49.998Z,-1.51
2019-01-04T05:40:15.807Z,-1.63
2019-01-04T05:42:41.621Z,-1.55
2019-01-04T05:45:07.526Z,-1.49
2019-01-04T05:47:33.357Z,-1.44
2019-01-04T05:49:59.285Z,-1.43
2019-01-04T05:52:25.122Z,-1.49
2019-01-04T05:54:50.960Z,-1.52
2019-01-04T05:57:16.788Z,-1.36
2019-01-04T05:59:42.728Z,-2.03
2019-01-04T06:02:08.562Z,-1.46
2019-01-04T06:04:34.390Z,-1.51
2019-01-04T06:07:00.347Z,-1.56
2019-01-04T06:09:26.171Z,-1.41
2019-01-04T06:11:52.025Z,-1.50
2019-01-04T06:14:17.831Z,-1.50
2019-01-04T06:16:43.770Z,-1.45
2019-01-04T06:19:09.581Z,-1.42
2019-01-04T06:21:35.407Z,-1.44
2019-01-04T06:24:01.234Z,-1.45
2019-01-04T06:26:27.058Z,-1.44
2019-01-04T06:28:52.999Z,-1.58
2019-01-04T06:31:18.826Z,-1.41
2019-01-04T06:33:44.668Z,-1.37
2019-01-04T06:36:10.493Z,-1.27
2019-01-04T06:38:36.451Z,-1.27
2019-01-04T06:41:02.349Z,-1.36
2019-01-04T06:43:28.280Z,-1.40
2019-01-04T06:45:54.100Z,-1.23
2019-01-04T06:48:20.124Z,-1.34
2019-01-04T06:50:45.929Z,-1.40
2019-01-04T06:53:11.874Z,-1.25
2019-01-04T06:55:43.572Z,-1.14
2019-01-04T06:58:09.404Z,-1.10
2019-01-04T07:00:35.215Z,-1.22
2019-01-04T07:03:01.086Z,-1.23
2019-01-04T07:05:27.025Z,-1.25
2019-01-04T07:07:52.854Z,-1.24
2019-01-04T07:10:18.695Z,-1.25
2019-01-04T07:12:44.495Z,-1.37
2019-01-04T07:15:10.522Z,-1.33
2019-01-04T07:17:36.331Z,-1.28
2019-01-04T07:20:03.359Z,-1.27
2019-01-04T07:22:29.173Z,-1.27
2019-01-04T07:24:55.032Z,-1.28
2019-01-04T07:27:20.832Z,-1.24
2019-01-04T07:29:46.776Z,-1.21
2019-01-04T07:32:12.603Z,-1.16
2019-01-04T07:34:38.490Z,-1.14
2019-01-04T07:37:04.393Z,-1.18
2019-01-04T07:39:30.243Z,-1.16
2019-01-04T07:41:56.053Z,-1.09
2019-01-04T07:44:21.885Z,-1.04
2019-01-04T07:46:47.721Z,-1.02
2019-01-04T07:49:13.576Z,-1.07
2019-01-04T07:51:39.409Z,-1.02
2019-01-04T07:54:05.250Z,-1.00
2019-01-04T07:56:31.104Z,-0.98
2019-01-04T07:58:56.931Z,-0.93
2019-01-04T08:01:22.788Z,-0.85
2019-01-04T08:03:48.645Z,-0.96
2019-01-04T08:06:14.485Z,-0.96
2019-01-04T08:08:40.416Z,-0.97
2019-01-04T08:11:06.330Z,-0.92
2019-01-04T08:13:32.256Z,-0.81
2019-01-04T08:15:58.165Z,-0.88
2019-01-04T08:18:24.034Z,-0.81
2019-01-04T08:20:49.843Z,-0.59
2019-01-04T08:23:15.667Z,-0.76
2019-01-04T08:25:41.607Z,-0.74
2019-01-04T08:28:07.449Z,-0.67
2019-01-04T08:30:33.355Z,-0.74
2019-01-04T08:32:59.178Z,-0.73
2019-01-04T08:35:25.017Z,-0.75
2019-01-04T08:37:50.823Z,-0.79
2019-01-04T08:40:16.691Z,-0.65
2019-01-04T08:42:42.512Z,-0.57
2019-01-04T08:45:08.447Z,-0.38
2019-01-04T08:47:34.276Z,-0.27
2019-01-04T08:50:00.241Z,-0.17
2019-01-04T08:52:26.165Z,-0.48
2019-01-04T08:54:52.018Z,-0.40
2019-01-04T08:57:17.843Z,-0.16
2019-01-04T08:59:43.669Z,-0.40
2019-01-04T09:02:09.546Z,-0.30
2019-01-04T09:04:36.663Z,-0.18
2019-01-04T09:07:02.591Z,0.01
2019-01-04T09:09:28.433Z,0.04
2019-01-04T09:11:54.357Z,0.06
2019-01-04T09:14:20.180Z,-0.11
2019-01-04T09:16:46.004Z,-0.22
2019-01-04T09:19:11.855Z,-0.23
2019-01-04T09:21:37.890Z,0.03
2019-01-04T09:24:03.725Z,-0.10
2019-01-04T09:26:29.551Z,-0.18
2019-01-04T09:28:55.536Z,-0.18
2019-01-04T09:31:21.349Z,-0.15
2019-01-04T09:33:47.185Z,-0.19
2019-01-04T09:36:13.002Z,-0.24
2019-01-04T09:38:38.830Z,-0.22
2019-01-04T09:41:32.080Z,-0.23
2019-01-04T09:43:58.011Z,-0.27
2019-01-04T09:46:24.030Z,-0.32
2019-01-04T09:48:50.058Z,-0.27
2019-01-04T09:51:15.889Z,-0.18
2019-01-04T09:53:41.701Z,-0.22
2019-01-04T09:56:07.559Z,-0.20
2019-01-04T09:58:33.378Z,-0.22
2019-01-04T10:00:59.947Z,-0.11
2019-01-04T10:03:25.941Z,-0.22
2019-01-04T10:05:51.922Z,-0.20
2019-01-04T10:08:17.729Z,-0.19
2019-01-04T10:10:43.556Z,-0.19
2019-01-04T10:13:09.396Z,-0.03
2019-01-04T10:15:35.221Z,0.09
2019-01-04T10:18:01.046Z,-0.06
2019-01-04T10:20:27.001Z,-0.08
2019-01-04T10:22:52.805Z,-0.01
2019-01-04T10:25:18.947Z,0.09
2019-01-04T10:27:44.761Z,0.09
2019-01-04T10:30:17.442Z,0.13
2019-01-04T10:32:43.276Z,0.30
2019-01-04T10:35:10.568Z,0.35
2019-01-04T10:37:36.664Z,0.33
2019-01-04T10:40:03.208Z,0.42
2019-01-04T10:42:29.142Z,0.39
2019-01-04T10:44:54.980Z,0.12
2019-01-04T10:47:20.884Z,0.11
2019-01-04T10:49:46.719Z,0.41
2019-01-04T10:52:12.553Z,0.39
2019-01-04T10:54:38.483Z,0.57
2019-01-04T10:57:04.330Z,0.64
2019-01-04T10:59:30.170Z,0.53
2019-01-04T11:01:55.977Z,0.64
2019-01-04T11:04:21.805Z,0.76
2019-01-04T11:06:47.658Z,0.77
2019-01-04T11:09:13.690Z,0.75
2019-01-04T11:11:39.531Z,0.79
2019-01-04T11:14:05.340Z,0.84
2019-01-04T11:16:31.158Z,0.75
2019-01-04T11:18:56.988Z,0.64
2019-01-04T11:21:22.807Z,0.79
2019-01-04T11:23:58.116Z,0.92
2019-01-04T11:26:27.775Z,0.86
2019-01-04T11:29:06.577Z,0.71
2019-01-04T11:31:51.470Z,0.52
2019-01-04T11:34:29.763Z,0.64
2019-01-04T11:37:05.207Z,0.59
2019-01-04T11:40:08.465Z,0.68
2019-01-04T11:43:02.800Z,0.72
2019-01-04T11:45:38.143Z,0.78
2019-01-04T11:48:13.290Z,0.45
2019-01-04T11:50:57.740Z,0.28
2019-01-04T11:53:23.650Z,0.43
2019-01-04T11:55:49.590Z,0.64
2019-01-04T11:58:15.417Z,0.76
2019-01-04T12:00:41.245Z,0.69
2019-01-04T12:03:07.118Z,0.68
2019-01-04T12:05:32.937Z,0.57
2019-01-04T12:07:58.775Z,0.66
2019-01-04T12:10:24.607Z,0.63
2019-01-04T12:12:50.443Z,0.75
2019-01-04T12:15:16.394Z,0.89
2019-01-04T12:17:42.337Z,0.78
2019-01-04T12:20:08.152Z,0.72
2019-01-04T12:22:34.000Z,0.68
2019-01-04T12:25:00.156Z,0.66
2019-01-04T12:27:25.957Z,0.70
2019-01-04T12:29:51.791Z,0.73
2019-01-04T12:32:17.640Z,0.68
2019-01-04T12:34:43.573Z,0.42
2019-01-04T12:37:09.413Z,0.61
2019-01-04T12:39:35.245Z,0.70
2019-01-04T12:42:01.186Z,0.63
2019-01-04T12:44:27.015Z,0.39
2019-01-04T12:46:52.843Z,0.61
2019-01-04T12:49:18.793Z,0.69
2019-01-04T12:51:44.625Z,0.67
2019-01-04T12:54:10.473Z,0.67
2019-01-04T12:56:36.309Z,0.68
2019-01-04T12:59:02.253Z,0.64
2019-01-04T13:01:28.058Z,0.67
2019-01-04T13:03:53.877Z,0.66
2019-01-04T13:06:19.786Z,0.58
2019-01-04T13:08:45.728Z,0.55
2019-01-04T13:11:11.665Z,0.54
2019-01-04T13:13:37.493Z,0.52
2019-01-04T13:16:03.307Z,0.50
2019-01-04T13:18:29.130Z,0.47
2019-01-04T13:20:54.973Z,0.38
2019-01-04T13:23:20.906Z,0.28
2019-01-04T13:25:46.741Z,0.33
2019-01-04T13:28:12.588Z,0.37
2019-01-04T13:30:38.524Z,0.33
2019-01-04T13:33:04.342Z,0.34
2019-01-04T13:35:30.188Z,0.34
2019-01-04T13:37:56.153Z,0.32
2019-01-04T13:40:22.072Z,0.34
2019-01-04T13:42:48.133Z,0.44
2019-01-04T13:45:13.958Z,0.41
2019-01-04T13:47:39.794Z,0.46
2019-01-04T13:50:06.121Z,0.45
2019-01-04T13:52:32.049Z,0.42
2019-01-04T13:54:57.861Z,0.35
2019-01-04T13:57:23.851Z,0.31
2019-01-04T13:59:49.684Z,0.35
2019-01-04T14:02:15.512Z,0.32
2019-01-04T14:04:41.318Z,0.32
2019-01-04T14:07:07.157Z,0.32
2019-01-04T14:09:32.981Z,0.31
2019-01-04T14:11:58.800Z,0.28
2019-01-04T14:14:24.718Z,0.31
2019-01-04T14:16:50.551Z,0.35
2019-01-04T14:19:16.402Z,0.34
2019-01-04T14:21:42.253Z,0.33
2019-01-04T14:24:08.107Z,0.33
2019-01-04T14:26:33.937Z,0.33
2019-01-04T14:28:59.799Z,0.31
2019-01-04T14:31:25.725Z,0.29
2019-01-04T14:33:51.556Z,0.27
2019-01-04T14:36:17.384Z,0.24
2019-01-04T14:38:43.243Z,0.25
2019-01-04T14:41:09.116Z,0.21
2019-01-04T14:43:34.970Z,0.24
2019-01-04T14:46:00.927Z,0.27
2019-01-04T14:48:26.783Z,0.29
2019-01-04T14:50:52.807Z,0.24
2019-01-04T14:53:18.745Z,0.24
2019-01-04T14:55:44.586Z,0.21
2019-01-04T14:58:10.539Z,0.20
2019-01-04T15:00:36.362Z,0.20
2019-01-04T15:03:02.945Z,0.21
2019-01-04T15:05:28.781Z,0.13
2019-01-04T15:07:54.664Z,0.15
2019-01-04T15:10:20.483Z,0.16
2019-01-04T15:12:46.347Z,0.16
2019-01-04T15:15:12.175Z,0.16
2019-01-04T15:17:38.397Z,0.14
2019-01-04T15:20:06.568Z,0.13
2019-01-04T15:22:32.835Z,0.18
2019-01-04T15:24:58.677Z,0.17
2019-01-04T15:27:24.539Z,0.20
2019-01-04T15:29:50.390Z,0.18
2019-01-04T15:32:16.216Z,0.05
2019-01-04T15:34:42.093Z,0.17
2019-01-04T15:37:07.936Z,0.13
2019-01-04T15:39:33.779Z,0.15
2019-01-04T15:41:59.596Z,0.17
2019-01-04T15:44:25.458Z,0.05
2019-01-04T15:46:51.273Z,0.07
2019-01-04T15:49:17.125Z,0.22
2019-01-04T15:51:43.060Z,0.23
2019-01-04T15:54:08.943Z,0.26
2019-01-04T15:56:34.747Z,0.24
2019-01-04T15:59:00.585Z,0.19
2019-01-04T16:01:26.404Z,0.19
2019-01-04T16:03:52.345Z,0.19
2019-01-04T16:06:18.150Z,0.27
2019-01-04T16:08:43.988Z,0.19
2019-01-04T16:11:09.798Z,0.21
2019-01-04T16:13:35.665Z,0.17
2019-01-04T16:16:04.731Z,0.20
2019-01-04T16:18:30.583Z,0.19
2019-01-04T16:20:56.406Z,0.13
2019-01-04T16:23:24.308Z,0.09
2019-01-04T16:25:50.181Z,0.13
2019-01-04T16:28:16.010Z,0.20
2019-01-04T16:30:41.836Z,0.16
2019-01-04T16:33:07.676Z,0.19
2019-01-04T16:35:33.498Z,0.16
2019-01-04T16:37:59.364Z,0.22
2019-01-04T16:40:25.296Z,0.19
2019-01-04T16:42:51.126Z,0.18
2019-01-04T16:45:16.968Z,0.17
2019-01-04T16:47:42.929Z,0.12
2019-01-04T16:50:08.859Z,0.11
2019-01-04T16:52:34.685Z,0.12
2019-01-04T16:55:00.615Z,0.08
2019-01-04T16:57:26.430Z,0.12
2019-01-04T16:59:52.382Z,0.08
2019-01-04T17:02:18.322Z,0.10
2019-01-04T17:04:44.161Z,0.08
2019-01-04T17:07:09.970Z,0.08
2019-01-04T17:09:35.813Z,0.08
2019-01-04T17:12:01.719Z,0.09
2019-01-04T17:14:27.550Z,0.08
2019-01-04T17:16:53.363Z,0.07
2019-01-04T17:19:19.213Z,0.08
2019-01-04T17:21:45.044Z,-1.91
2019-01-04T17:24:10.889Z,0.08
2019-01-04T17:26:36.825Z,0.10
2019-01-04T17:29:02.690Z,0.07
2019-01-04T17:31:28.534Z,0.12
2019-01-04T17:33:54.402Z,0.13
2019-01-04T17:36:20.230Z,0.12
2019-01-04T17:38:46.179Z,0.15
2019-01-04T17:41:12.017Z,0.16
2019-01-04T17:43:37.872Z,0.16
2019-01-04T17:46:03.722Z,0.14
2019-01-04T17:48:29.572Z,0.19
2019-01-04T17:50:55.392Z,0.21
2019-01-04T17:53:21.228Z,0.21
2019-01-04T17:55:47.188Z,0.20
2019-01-04T17:58:13.018Z,0.24
2019-01-04T18:00:38.938Z,0.17
2019-01-04T18:03:04.780Z,0.21
2019-01-04T18:05:30.613Z,0.26
2019-01-04T18:07:56.451Z,0.25
2019-01-04T18:10:22.282Z,0.25
2019-01-04T18:12:48.121Z,0.23
2019-01-04T18:15:14.008Z,0.20
2019-01-04T18:17:39.832Z,0.27
2019-01-04T18:20:10.870Z,0.27
2019-01-04T18:22:35.310Z,0.31
2019-01-04T18:25:01.283Z,0.29
2019-01-04T18:27:27.175Z,0.24
2019-01-04T18:29:53.044Z,0.34
2019-01-04T18:32:18.839Z,0.35
2019-01-04T18:34:44.685Z,0.34
2019-01-04T18:37:10.491Z,0.36
2019-01-04T18:39:36.324Z,0.32
2019-01-04T18:42:02.248Z,0.34
2019-01-04T18:44:28.108Z,0.38
2019-01-04T18:46:54.043Z,0.42
2019-01-04T18:49:19.976Z,0.45
2019-01-04T18:51:45.810Z,0.44
2019-01-04T18:54:11.791Z,0.44
2019-01-04T18:56:37.632Z,0.47
2019-01-04T18:59:03.668Z,0.44
2019-01-04T19:01:29.546Z,0.48
2019-01-04T19:03:55.513Z,0.43
2019-01-04T19:06:21.642Z,0.49
2019-01-04T19:08:47.470Z,0.46
2019-01-04T19:11:13.521Z,0.51
2019-01-04T19:13:39.381Z,0.44
2019-01-04T19:16:05.243Z,0.52
2019-01-04T19:18:31.096Z,0.52
2019-01-04T19:20:56.924Z,0.54
2019-01-04T19:23:22.753Z,0.42
2019-01-04T19:25:48.576Z,0.41
2019-01-04T19:28:14.405Z,0.56
2019-01-04T19:30:40.347Z,0.58
2019-01-04T19:33:06.185Z,0.45
2019-01-04T19:35:32.033Z,0.60
2019-01-04T19:37:57.878Z,0.65
2019-01-04T19:40:23.701Z,0.65
2019-01-04T19:42:49.533Z,0.64
2019-01-04T19:45:15.397Z,0.64
2019-01-04T19:47:41.246Z,0.66
2019-01-04T19:50:16.094Z,0.67
2019-01-04T19:52:41.922Z,0.70
2019-01-04T19:55:07.781Z,0.69
2019-01-04T19:57:33.628Z,0.62
2019-01-04T19:59:59.563Z,0.69
2019-01-04T20:02:25.381Z,0.71
2019-01-04T20:04:51.322Z,0.70
2019-01-04T20:08:04.430Z,0.71
2019-01-04T20:10:56.829Z,0.65
2019-01-04T20:14:00.584Z,0.69
2019-01-04T20:16:34.840Z,0.61
2019-01-04T20:19:19.794Z,0.54
2019-01-04T20:21:50.286Z,0.66
2019-01-04T20:24:34.667Z,0.73
2019-01-04T20:27:02.418Z,0.63
2019-01-04T20:29:41.918Z,0.71
2019-01-04T20:32:15.488Z,0.74
2019-01-04T20:34:59.800Z,0.77
2019-01-04T20:37:27.552Z,0.75
2019-01-04T20:40:00.886Z,0.69
2019-01-04T20:42:45.310Z,0.68
2019-01-04T20:45:22.089Z,0.68
2019-01-04T20:48:06.447Z,0.74
2019-01-04T20:50:36.951Z,0.76
2019-01-04T20:53:10.925Z,0.68
2019-01-04T20:55:55.446Z,0.67
2019-01-04T20:58:35.086Z,0.73
2019-01-04T21:01:02.844Z,0.75
2019-01-04T21:03:30.592Z,0.77
2019-01-04T21:06:10.705Z,0.83
2019-01-04T21:08:41.215Z,0.83
2019-01-04T21:11:25.519Z,0.87
2019-01-04T21:14:05.467Z,0.83
2019-01-04T21:16:42.095Z,0.85
2019-01-04T21:19:26.855Z,0.85
2019-01-04T21:22:03.608Z,0.85
2019-01-04T21:24:31.354Z,0.87
2019-01-04T21:26:59.073Z,0.85
2019-01-04T21:29:36.051Z,0.89
2019-01-04T21:32:16.094Z,0.88
2019-01-04T21:34:43.841Z,0.92
2019-01-04T21:37:28.553Z,0.85
2019-01-04T21:39:59.102Z,0.92
2019-01-04T21:42:41.864Z,0.82
2019-01-04T21:45:26.638Z,0.91
2019-01-04T21:48:00.166Z,0.96
2019-01-04T21:50:36.966Z,0.94
2019-01-04T21:53:10.793Z,0.95
2019-01-04T21:55:41.413Z,0.90
2019-01-04T21:58:11.664Z,0.96
2019-01-04T22:00:42.126Z,0.96
2019-01-04T22:03:12.909Z,0.95
2019-01-04T22:05:43.411Z,0.97
2019-01-04T22:08:23.338Z,0.95
2019-01-04T22:10:54.125Z,0.95
2019-01-04T22:13:33.726Z,0.93
2019-01-04T22:16:18.111Z,0.99
2019-01-04T22:18:54.892Z,0.93
2019-01-04T22:21:31.771Z,0.99
2019-01-04T22:24:02.827Z,1.03
2019-01-04T22:26:45.656Z,1.02
2019-01-04T22:29:16.048Z,1.01
2019-01-04T22:31:49.677Z,1.02
2019-01-04T22:34:23.499Z,1.06
2019-01-04T22:36:51.270Z,1.03
2019-01-04T22:39:19.017Z,1.00
2019-01-04T22:41:58.898Z,1.00
2019-01-04T22:44:39.025Z,1.02
2019-01-04T22:47:12.997Z,1.01
2019-01-04T22:49:57.390Z,0.98
2019-01-04T22:52:42.148Z,0.96
2019-01-04T22:55:18.683Z,0.97
2019-01-04T22:57:46.432Z,0.96
2019-01-04T23:00:32.813Z,0.96
2019-01-04T23:03:00.641Z,0.96
2019-01-04T23:05:28.411Z,0.92
2019-01-04T23:07:58.969Z,0.93
2019-01-04T23:10:26.741Z,0.93
2019-01-04T23:13:11.099Z,0.93
2019-01-04T23:15:53.914Z,0.92
2019-01-04T23:18:24.244Z,0.91
2019-01-04T23:20:55.018Z,0.92
2019-01-04T23:23:22.864Z,0.91
2019-01-04T23:25:59.236Z,0.94
2019-01-04T23:28:29.536Z,0.91
2019-01-04T23:31:06.425Z,0.90
2019-01-04T23:33:43.305Z,0.94
2019-01-04T23:36:27.953Z,0.92
2019-01-04T23:39:12.276Z,0.89
2019-01-04T23:41:56.624Z,0.91
2019-01-04T23:44:42.574Z,0.86
2019-01-04T23:47:18.984Z,0.87
2019-01-04T23:50:03.528Z,0.85
2019-01-04T23:52:37.578Z,0.82
2019-01-04T23:55:05.413Z,0.83
2019-01-04T23:57:49.798Z,0.80
